Aeroboteco Virtual Airlines! Uma nuvem a frente.



 INFORMAÇÕES METEOROLÓGICAS
METAR FOR SBST
ADDS - METARS form results

(1955 UTC 26 May 2019)
Data provider http://aviationweather.gov/metar/data/
 
METAR text: SBST 261900Z 16003KT 140V210 9999 BKN032 BKN036 BKN043 22/17 Q1016
Conditions at: SBST (SANTOS (BRAZ-AFB, BR) observed 1900 UTC 26 May 2019
Temperature: 22.0°C (72°F)
Dewpoint: 17.0°C (63°F) [RH = 73%]
Pressure (altimeter): 30.00 inches Hg (1016.0 mb)
Winds: from the SSE (160 degrees) at 3 MPH (3 knots; 1.5 m/s)
Visibility: 6 or more miles (10+ km)
Ceiling: 3200 feet AGL
Clouds: broken clouds at 3200 feet AGL
broken clouds at 3600 feet AGL
broken clouds at 4300 feet AGL
Weather: no significant weather observed at this time

 MAPA DO AEROPORTO

 INFORMAÇÕES DA PISTA
Pista 17 Tamanho da pista 4560 ft Largura da pista 148 ft
Elevação da pista 0 ft Ranhura da pista 0 ft Proa da pista 0
Pista 35 Tamanho da pista 4560 ft Largura da pista 148 ft
Elevação da pista 0 ft Ranhura da pista 0 ft Proa da pista 0

 FREQUÊNCIAS DO AEROPORTO
Tipo APP Nome SAO PAULO Frequência 119.8 MHZ
Tipo TWR Nome TWR Frequência 118.3 MHZ

 AUXÍLIOS DE NAVEGAÇÃO PRÓXIMOS AO AEROPORTO
Tipo NDB Nome Vicente Frequência 360 KHZ
Tipo NDB Nome Santos Frequência 375 KHZ